createdAt,value
2019-02-07T00:01:18.875Z,75.30
2019-02-07T00:04:05.141Z,75.10
2019-02-07T00:06:50.383Z,75.20
2019-02-07T00:09:35.416Z,75.30
2019-02-07T00:12:20.729Z,75.20
2019-02-07T00:15:08.749Z,75.40
2019-02-07T00:17:53.556Z,75.00
2019-02-07T00:20:38.836Z,75.40
2019-02-07T00:23:24.147Z,74.90
2019-02-07T00:26:09.213Z,74.90
2019-02-07T00:28:54.657Z,75.50
2019-02-07T00:31:39.970Z,74.90
2019-02-07T00:34:25.118Z,74.80
2019-02-07T00:37:10.456Z,75.40
2019-02-07T00:39:55.738Z,75.60
2019-02-07T00:42:41.279Z,75.50
2019-02-07T00:45:26.500Z,75.00
2019-02-07T00:48:12.244Z,74.70
2019-02-07T00:50:57.604Z,74.80
2019-02-07T00:53:42.824Z,75.10
2019-02-07T00:56:28.212Z,74.70
2019-02-07T00:59:14.203Z,74.30
2019-02-07T01:01:59.532Z,74.50
2019-02-07T01:04:44.681Z,74.60
2019-02-07T01:07:30.102Z,74.80
2019-02-07T01:10:47.929Z,74.20
2019-02-07T01:13:34.833Z,75.10
2019-02-07T01:16:20.595Z,75.20
2019-02-07T01:19:06.952Z,74.90
2019-02-07T01:21:52.209Z,75.00
2019-02-07T01:24:37.752Z,75.00
2019-02-07T01:27:23.190Z,74.80
2019-02-07T01:30:20.894Z,75.10
2019-02-07T01:33:05.970Z,75.00
2019-02-07T01:35:51.692Z,75.40
2019-02-07T01:38:37.700Z,75.00
2019-02-07T01:41:23.685Z,75.30
2019-02-07T01:44:10.087Z,75.30
2019-02-07T01:46:55.511Z,75.70
2019-02-07T01:49:41.083Z,75.20
2019-02-07T01:52:26.028Z,75.80
2019-02-07T01:55:11.895Z,75.10
2019-02-07T01:57:56.855Z,76.10
2019-02-07T02:00:42.329Z,76.10
2019-02-07T02:03:27.887Z,76.00
2019-02-07T02:06:13.597Z,76.80
2019-02-07T02:08:58.747Z,77.60
2019-02-07T02:11:44.075Z,77.20
2019-02-07T02:14:29.139Z,78.60
2019-02-07T02:17:14.731Z,78.40
2019-02-07T02:20:00.292Z,77.40
2019-02-07T02:22:45.324Z,76.70
2019-02-07T02:25:30.598Z,76.90
2019-02-07T02:28:15.826Z,76.40
2019-02-07T02:31:01.635Z,76.20
2019-02-07T02:33:48.143Z,76.30
2019-02-07T02:36:33.448Z,76.00
2019-02-07T02:39:19.221Z,75.60
2019-02-07T02:42:04.498Z,75.50
2019-02-07T02:44:50.044Z,75.50
2019-02-07T02:47:36.514Z,75.40
2019-02-07T02:50:22.373Z,75.50
2019-02-07T02:53:07.705Z,75.10
2019-02-07T02:55:53.662Z,74.80
2019-02-07T02:58:39.692Z,75.60
2019-02-07T03:01:26.846Z,75.30
2019-02-07T03:04:13.941Z,75.30
2019-02-07T03:07:01.239Z,75.40
2019-02-07T03:09:48.011Z,75.60
2019-02-07T03:12:51.435Z,75.80
2019-02-07T03:15:50.383Z,75.70
2019-02-07T03:18:54.135Z,76.60
2019-02-07T03:21:41.485Z,76.70
2019-02-07T03:24:28.690Z,76.60
2019-02-07T03:27:31.907Z,76.70
2019-02-07T03:30:34.510Z,76.30
2019-02-07T03:33:21.519Z,76.80
2019-02-07T03:36:08.550Z,77.10
2019-02-07T03:38:58.040Z,76.20
2019-02-07T03:41:53.834Z,76.40
2019-02-07T03:44:46.876Z,76.70
2019-02-07T03:47:34.814Z,77.20
2019-02-07T03:50:38.327Z,76.70
2019-02-07T03:53:42.013Z,77.00
2019-02-07T03:56:29.263Z,76.60
2019-02-07T03:59:28.541Z,77.50
2019-02-07T04:02:32.033Z,77.10
2019-02-07T04:05:19.667Z,77.10
2019-02-07T04:08:12.226Z,77.30
2019-02-07T04:11:02.232Z,77.40
2019-02-07T04:13:49.741Z,77.60
2019-02-07T04:16:53.245Z,78.00
2019-02-07T04:19:40.442Z,77.80
2019-02-07T04:22:44.201Z,77.80
2019-02-07T04:25:37.094Z,77.00
2019-02-07T04:28:33.121Z,77.60
2019-02-07T04:31:28.592Z,77.80
2019-02-07T04:34:24.560Z,77.20
2019-02-07T04:37:29.598Z,77.80
2019-02-07T04:40:33.349Z,77.70
2019-02-07T04:43:37.004Z,77.70
2019-02-07T04:46:40.796Z,77.90
2019-02-07T04:49:45.805Z,77.20
2019-02-07T04:52:38.692Z,77.90
2019-02-07T04:55:42.141Z,77.60
2019-02-07T04:58:41.311Z,76.70
2019-02-07T05:01:37.051Z,76.70
2019-02-07T05:04:23.935Z,76.60
2019-02-07T05:07:28.209Z,77.20
2019-02-07T05:10:24.262Z,76.50
2019-02-07T05:13:17.293Z,76.80
2019-02-07T05:16:08.028Z,76.30
2019-02-07T05:19:10.378Z,77.20
2019-02-07T05:22:09.519Z,76.70
2019-02-07T05:24:59.596Z,77.00
2019-02-07T05:27:46.914Z,77.20
2019-02-07T05:30:46.144Z,76.70
2019-02-07T05:33:42.595Z,76.40
2019-02-07T05:36:32.412Z,76.30
2019-02-07T05:39:36.443Z,76.70
2019-02-07T05:42:26.424Z,76.40
2019-02-07T05:45:16.764Z,77.10
2019-02-07T05:48:08.586Z,77.10
2019-02-07T05:50:58.326Z,76.70
2019-02-07T05:54:01.782Z,76.80
2019-02-07T05:56:51.717Z,77.00
2019-02-07T05:59:44.707Z,76.60
2019-02-07T06:02:34.595Z,77.20
2019-02-07T06:05:38.807Z,76.60
2019-02-07T06:08:28.754Z,76.50
2019-02-07T06:11:16.053Z,76.90
2019-02-07T06:14:05.747Z,77.00
2019-02-07T06:17:09.353Z,77.00
2019-02-07T06:19:56.534Z,76.10
2019-02-07T06:22:59.472Z,76.30
2019-02-07T06:26:04.658Z,77.30
2019-02-07T06:28:57.766Z,77.10
2019-02-07T06:31:50.839Z,76.70
2019-02-07T06:34:41.015Z,76.80
2019-02-07T06:37:30.982Z,77.00
2019-02-07T06:40:34.590Z,76.50
2019-02-07T06:43:22.536Z,76.10
2019-02-07T06:46:26.298Z,75.70
2019-02-07T06:49:13.209Z,75.90
2019-02-07T06:52:09.302Z,75.30
2019-02-07T06:55:05.896Z,75.20
2019-02-07T06:57:59.873Z,75.50
2019-02-07T07:00:55.949Z,75.50
2019-02-07T07:03:52.399Z,76.50
2019-02-07T07:06:39.983Z,76.40
2019-02-07T07:09:36.229Z,76.30
2019-02-07T07:12:40.090Z,76.20
2019-02-07T07:15:40.355Z,76.40
2019-02-07T07:18:44.427Z,76.00
2019-02-07T07:24:59.986Z,75.90
2019-02-07T07:27:56.094Z,75.40
2019-02-07T07:30:51.086Z,75.40
2019-02-07T07:33:41.587Z,75.20
2019-02-07T07:36:35.046Z,74.70
2019-02-07T07:39:22.731Z,74.10
2019-02-07T07:42:15.864Z,75.00
2019-02-07T07:45:03.308Z,74.80
2019-02-07T07:48:07.234Z,75.10
2019-02-07T07:51:09.490Z,74.50
2019-02-07T07:53:56.294Z,74.20
2019-02-07T07:56:55.673Z,74.10
2019-02-07T07:59:59.674Z,73.90
2019-02-07T08:02:50.244Z,74.00
2019-02-07T08:05:43.188Z,73.70
2019-02-07T08:08:33.585Z,73.80
2019-02-07T08:11:26.717Z,72.90
2019-02-07T08:14:14.534Z,73.40
2019-02-07T08:17:04.626Z,72.80
2019-02-07T08:19:54.407Z,72.80
2019-02-07T08:22:47.469Z,72.20
2019-02-07T08:25:51.423Z,72.50
2019-02-07T08:28:47.391Z,71.80
2019-02-07T08:31:37.626Z,71.00
2019-02-07T08:34:53.431Z,70.30
2019-02-07T08:37:58.246Z,70.00
2019-02-07T08:41:00.511Z,69.10
2019-02-07T08:43:54.218Z,68.20
2019-02-07T08:46:41.415Z,68.00
2019-02-07T08:49:45.362Z,67.40
2019-02-07T08:52:49.202Z,66.70
2019-02-07T08:55:52.082Z,65.50
2019-02-07T08:58:39.120Z,64.00
2019-02-07T09:01:26.720Z,63.20
2019-02-07T09:04:31.887Z,62.80
2019-02-07T09:07:19.383Z,62.10
2019-02-07T09:10:27.843Z,61.60
2019-02-07T09:13:14.625Z,60.70
2019-02-07T09:16:13.903Z,60.00
2019-02-07T09:19:07.084Z,59.40
2019-02-07T09:21:58.527Z,58.90
2019-02-07T09:25:00.865Z,58.50
2019-02-07T09:28:04.793Z,58.00
2019-02-07T09:31:08.451Z,56.80
2019-02-07T09:33:57.653Z,55.80
2019-02-07T09:36:57.353Z,54.80
2019-02-07T09:39:47.274Z,53.40
2019-02-07T09:42:34.866Z,53.00
2019-02-07T09:45:38.608Z,51.90
2019-02-07T09:48:28.396Z,51.70
2019-02-07T09:51:31.976Z,51.40
2019-02-07T09:54:19.375Z,51.20
2019-02-07T09:57:12.376Z,50.90
2019-02-07T09:59:59.704Z,50.30
2019-02-07T10:02:56.206Z,49.80
2019-02-07T10:05:43.188Z,50.20
2019-02-07T10:08:30.917Z,49.40
2019-02-07T10:11:35.259Z,48.70
2019-02-07T10:14:25.255Z,48.20
2019-02-07T10:17:12.287Z,48.10
2019-02-07T10:20:07.765Z,47.60
2019-02-07T10:23:13.259Z,47.50
2019-02-07T10:26:02.770Z,46.70
2019-02-07T10:28:50.199Z,46.60
2019-02-07T10:31:43.031Z,46.10
2019-02-07T10:34:30.137Z,46.40
2019-02-07T10:37:17.388Z,46.70
2019-02-07T10:40:07.690Z,46.30
2019-02-07T10:42:54.889Z,46.50
2019-02-07T10:46:01.176Z,46.70
2019-02-07T10:48:48.083Z,47.50
2019-02-07T10:51:38.702Z,47.80
2019-02-07T10:54:37.739Z,47.60
2019-02-07T10:57:27.561Z,47.50
2019-02-07T11:00:27.954Z,47.80
2019-02-07T11:03:29.603Z,48.50
2019-02-07T11:06:17.005Z,49.10
2019-02-07T11:09:11.366Z,49.50
2019-02-07T11:12:07.425Z,49.60
2019-02-07T11:14:57.912Z,49.70
2019-02-07T11:17:47.677Z,49.30
2019-02-07T11:20:52.611Z,49.50
2019-02-07T11:23:39.913Z,49.30
2019-02-07T11:26:29.657Z,49.60
2019-02-07T11:29:33.342Z,49.40
2019-02-07T11:32:26.916Z,49.30
2019-02-07T11:35:31.570Z,49.60
2019-02-07T11:38:33.685Z,49.60
2019-02-07T11:41:26.560Z,50.10
2019-02-07T11:44:14.250Z,50.30
2019-02-07T11:47:19.346Z,50.40
2019-02-07T11:50:26.162Z,50.70
2019-02-07T11:53:31.360Z,51.20
2019-02-07T11:56:18.686Z,51.20
2019-02-07T11:59:15.818Z,51.50
2019-02-07T12:05:24.740Z,51.40
2019-02-07T12:08:13.489Z,51.60
2019-02-07T12:11:09.333Z,51.70
2019-02-07T12:13:57.036Z,51.50
2019-02-07T12:16:44.177Z,51.80
2019-02-07T12:19:37.034Z,52.20
2019-02-07T12:22:29.749Z,52.30
2019-02-07T12:25:29.361Z,52.70
2019-02-07T12:28:16.467Z,52.20
2019-02-07T12:31:10.428Z,52.50
2019-02-07T12:33:57.322Z,52.50
2019-02-07T12:37:00.864Z,53.20
2019-02-07T12:39:48.532Z,53.50
2019-02-07T12:42:35.633Z,53.50
2019-02-07T12:45:28.786Z,53.70
2019-02-07T12:48:27.929Z,52.80
2019-02-07T12:51:18.025Z,52.80
2019-02-07T12:54:10.600Z,52.20
2019-02-07T12:56:57.959Z,52.30
2019-02-07T13:00:01.637Z,52.80
2019-02-07T13:02:48.867Z,53.40
2019-02-07T13:05:51.587Z,53.30
2019-02-07T13:08:52.135Z,53.40
2019-02-07T13:11:46.039Z,53.40
2019-02-07T13:14:35.923Z,53.40
2019-02-07T13:17:23.163Z,53.50
2019-02-07T13:20:23.181Z,53.80
2019-02-07T13:23:16.112Z,54.30
2019-02-07T13:26:03.358Z,54.50
2019-02-07T13:29:07.023Z,54.70
2019-02-07T13:31:54.710Z,54.90
2019-02-07T13:34:56.336Z,55.20
2019-02-07T13:37:46.160Z,55.30
2019-02-07T13:40:37.056Z,55.60
2019-02-07T13:43:36.695Z,55.60
2019-02-07T13:46:40.446Z,55.50
2019-02-07T13:49:30.430Z,55.20
2019-02-07T13:52:23.989Z,55.20
2019-02-07T13:55:13.114Z,55.40
2019-02-07T13:58:09.452Z,55.30
2019-02-07T14:01:13.365Z,55.70
2019-02-07T14:04:18.884Z,55.40
2019-02-07T14:07:14.829Z,55.40
2019-02-07T14:10:02.034Z,55.40
2019-02-07T14:13:05.575Z,56.00
2019-02-07T14:15:58.819Z,55.90
2019-02-07T14:18:46.205Z,55.70
2019-02-07T14:21:51.250Z,55.70
2019-02-07T14:24:38.324Z,55.90
2019-02-07T14:27:25.474Z,56.10
2019-02-07T14:30:19.661Z,56.20
2019-02-07T14:33:29.972Z,56.70
2019-02-07T14:36:26.349Z,56.30
2019-02-07T14:39:19.149Z,56.70
2019-02-07T14:42:15.206Z,56.80
2019-02-07T14:45:19.494Z,56.80
2019-02-07T14:48:04.814Z,56.90
2019-02-07T14:50:50.784Z,57.20
2019-02-07T14:53:35.733Z,57.60
2019-02-07T14:56:21.020Z,57.60
2019-02-07T14:59:06.740Z,58.00
2019-02-07T15:01:52.391Z,57.90
2019-02-07T15:04:37.867Z,58.30
2019-02-07T15:07:23.190Z,58.50
2019-02-07T15:10:12.017Z,59.40
2019-02-07T15:13:01.091Z,58.90
2019-02-07T15:15:45.205Z,58.50
2019-02-07T15:18:30.553Z,58.50
2019-02-07T15:21:15.912Z,59.10
2019-02-07T15:24:01.129Z,59.10
2019-02-07T15:26:46.771Z,59.30
2019-02-07T15:29:31.965Z,59.40
2019-02-07T15:32:17.276Z,59.70
2019-02-07T15:35:06.112Z,59.80
2019-02-07T15:37:51.364Z,59.60
2019-02-07T15:40:36.880Z,59.90
2019-02-07T15:43:22.290Z,60.20
2019-02-07T15:46:08.496Z,60.00
2019-02-07T15:48:53.830Z,60.50
2019-02-07T15:51:39.100Z,60.40
2019-02-07T15:54:25.165Z,60.10
2019-02-07T15:57:10.170Z,60.10
2019-02-07T15:59:55.839Z,60.30
2019-02-07T16:02:41.463Z,60.40
2019-02-07T16:05:26.967Z,60.40
2019-02-07T16:08:15.305Z,60.60
2019-02-07T16:11:00.574Z,61.00
2019-02-07T16:13:46.341Z,60.60
2019-02-07T16:16:31.451Z,60.70
2019-02-07T16:19:16.930Z,60.60
2019-02-07T16:22:02.190Z,60.60
2019-02-07T16:24:48.721Z,60.70
2019-02-07T16:27:34.685Z,60.90
2019-02-07T16:30:20.992Z,61.50
2019-02-07T16:33:06.595Z,60.90
2019-02-07T16:35:51.916Z,61.40
2019-02-07T16:38:37.709Z,61.50
2019-02-07T16:41:24.410Z,61.50
2019-02-07T16:44:09.618Z,61.30
2019-02-07T16:46:54.918Z,61.50
2019-02-07T16:49:40.153Z,61.60
2019-02-07T16:52:26.052Z,61.90
2019-02-07T16:55:11.906Z,61.70
2019-02-07T16:57:57.042Z,62.00
2019-02-07T17:00:42.860Z,61.80
2019-02-07T17:03:28.187Z,61.90
2019-02-07T17:06:13.673Z,61.90
2019-02-07T17:08:59.634Z,62.00
2019-02-07T17:11:44.838Z,62.40
2019-02-07T17:14:30.259Z,62.20
2019-02-07T17:17:15.535Z,62.40
2019-02-07T17:20:01.384Z,62.50
2019-02-07T17:22:47.564Z,62.50
2019-02-07T17:25:37.227Z,62.40
2019-02-07T17:28:23.003Z,62.30
2019-02-07T17:31:09.095Z,62.50
2019-02-07T17:33:54.439Z,62.50
2019-02-07T17:36:41.907Z,62.50
2019-02-07T17:39:29.346Z,62.60
2019-02-07T17:42:15.137Z,62.60
2019-02-07T17:45:00.553Z,62.80
2019-02-07T17:47:45.812Z,62.70
2019-02-07T17:50:38.966Z,63.40
2019-02-07T17:53:24.440Z,63.00
2019-02-07T17:56:09.830Z,63.00
2019-02-07T17:58:55.256Z,62.80
2019-02-07T18:01:40.644Z,63.10
2019-02-07T18:04:26.262Z,63.30
2019-02-07T18:07:12.212Z,63.60
2019-02-07T18:09:57.826Z,63.30
2019-02-07T18:12:43.066Z,63.30
2019-02-07T18:15:28.027Z,63.50
2019-02-07T18:18:13.393Z,63.40
2019-02-07T18:20:58.507Z,63.90
2019-02-07T18:23:44.944Z,64.00
2019-02-07T18:26:30.047Z,64.00
2019-02-07T18:29:15.337Z,64.10
2019-02-07T18:32:00.918Z,64.00
2019-02-07T18:34:46.623Z,64.20
2019-02-07T18:37:33.265Z,64.30
2019-02-07T18:40:26.740Z,64.50
2019-02-07T18:43:11.682Z,64.70
2019-02-07T18:45:57.444Z,64.60
2019-02-07T18:48:43.565Z,64.50
2019-02-07T18:51:29.009Z,64.80
2019-02-07T18:54:14.116Z,64.80
2019-02-07T18:56:59.486Z,65.30
2019-02-07T18:59:44.787Z,65.20
2019-02-07T19:02:29.810Z,65.20
2019-02-07T19:05:19.331Z,65.00
2019-02-07T19:08:05.515Z,65.70
2019-02-07T19:10:50.893Z,65.40
2019-02-07T19:13:36.161Z,65.30
2019-02-07T19:16:21.347Z,65.70
2019-02-07T19:19:07.725Z,65.10
2019-02-07T19:21:57.174Z,65.50
2019-02-07T19:24:40.213Z,65.60
2019-02-07T19:27:25.977Z,65.70
2019-02-07T19:30:17.977Z,65.50
2019-02-07T19:33:04.617Z,65.50
2019-02-07T19:35:49.877Z,65.60
2019-02-07T19:38:35.810Z,66.00
2019-02-07T19:41:20.876Z,65.90
2019-02-07T19:44:06.111Z,66.10
2019-02-07T19:46:51.582Z,66.00
2019-02-07T19:49:36.594Z,65.80
2019-02-07T19:52:22.347Z,65.70
2019-02-07T19:55:12.098Z,65.40
2019-02-07T19:57:59.571Z,65.80
2019-02-07T20:00:44.880Z,65.80
2019-02-07T20:03:30.070Z,65.40
2019-02-07T20:06:16.417Z,65.30
2019-02-07T20:09:05.482Z,65.30
2019-02-07T20:11:51.655Z,65.20
2019-02-07T20:14:36.467Z,65.10
2019-02-07T20:17:21.751Z,65.00
2019-02-07T20:20:10.812Z,65.30
2019-02-07T20:22:56.373Z,65.20
2019-02-07T20:25:41.670Z,64.60
2019-02-07T20:28:26.929Z,65.10
2019-02-07T20:31:12.281Z,65.60
2019-02-07T20:33:57.873Z,65.40
2019-02-07T20:36:43.242Z,66.10
2019-02-07T20:39:28.750Z,65.50
2019-02-07T20:42:13.873Z,65.60
2019-02-07T20:44:59.101Z,65.60
2019-02-07T20:47:44.860Z,66.00
2019-02-07T20:50:29.742Z,65.70
2019-02-07T20:53:17.230Z,65.80
2019-02-07T20:56:04.066Z,66.30
2019-02-07T20:58:49.297Z,66.00
2019-02-07T21:01:34.760Z,66.70
2019-02-07T21:04:19.859Z,66.90
2019-02-07T21:07:05.334Z,66.70
2019-02-07T21:09:50.710Z,66.70
2019-02-07T21:12:35.920Z,67.00
2019-02-07T21:15:21.416Z,67.00
2019-02-07T21:18:07.217Z,67.30
2019-02-07T21:20:52.168Z,68.20
2019-02-07T21:23:37.832Z,68.80
2019-02-07T21:26:23.215Z,69.60
2019-02-07T21:29:08.903Z,70.30
2019-02-07T21:31:54.927Z,71.80
2019-02-07T21:34:40.099Z,72.30
2019-02-07T21:37:25.168Z,73.50
2019-02-07T21:40:13.583Z,75.00
2019-02-07T21:42:59.377Z,75.60
2019-02-07T21:45:45.458Z,76.10
2019-02-07T21:48:33.122Z,76.80
2019-02-07T21:51:19.656Z,78.20
2019-02-07T21:54:05.562Z,79.00
2019-02-07T21:56:50.675Z,78.80
2019-02-07T21:59:35.936Z,79.30
2019-02-07T22:02:21.045Z,80.30
2019-02-07T22:05:06.452Z,80.90
2019-02-07T22:07:52.369Z,81.30
2019-02-07T22:10:37.569Z,81.60
2019-02-07T22:13:22.881Z,82.00
2019-02-07T22:16:07.807Z,82.60
2019-02-07T22:18:55.099Z,82.40
2019-02-07T22:21:40.805Z,82.70
2019-02-07T22:24:26.094Z,82.80
2019-02-07T22:27:11.731Z,83.40
2019-02-07T22:29:56.855Z,83.30
2019-02-07T22:32:42.117Z,83.60
2019-02-07T22:35:28.190Z,84.10
2019-02-07T22:38:13.423Z,84.60
2019-02-07T22:40:59.090Z,84.60
2019-02-07T22:43:44.912Z,84.40
2019-02-07T22:46:30.886Z,84.80
2019-02-07T22:49:15.972Z,84.90
2019-02-07T22:52:01.491Z,84.80
2019-02-07T22:54:46.506Z,85.60
2019-02-07T22:57:31.744Z,85.60
2019-02-07T23:00:37.907Z,85.60
2019-02-07T23:03:23.308Z,85.70
2019-02-07T23:06:08.474Z,86.30
2019-02-07T23:08:53.741Z,86.50
2019-02-07T23:11:38.971Z,86.20
2019-02-07T23:14:24.755Z,86.10
2019-02-07T23:17:09.926Z,86.50
2019-02-07T23:19:55.101Z,86.40
2019-02-07T23:22:40.339Z,86.70
2019-02-07T23:25:25.489Z,87.00
2019-02-07T23:28:10.790Z,87.00
2019-02-07T23:30:56.278Z,86.70
2019-02-07T23:33:41.866Z,86.70
2019-02-07T23:36:27.038Z,86.80
2019-02-07T23:39:12.241Z,86.80
2019-02-07T23:41:57.590Z,86.60
2019-02-07T23:44:43.170Z,86.90
2019-02-07T23:47:28.173Z,86.90
2019-02-07T23:50:13.986Z,87.20
2019-02-07T23:52:59.436Z,87.50
2019-02-07T23:55:44.466Z,87.20
2019-02-07T23:58:29.784Z,87.30
